Time;durP1;ratioP1;P1;durP2;ratioP2;P2;SDS_P1;SDS_P2;PMS_P1;PMS_P2;Temp;Humidity;BMP_temperature;BMP_pressure;BME280_temperature;BME280_humidity;BME280_pressure;Samples;Min_cycle;Max_cycle;Signal;HPM_P1;HPM_P2
2022/09/27 00:02:07;;;;;;;8.52;2.42;;;;;;;;;;5105418;28;20112;-70
2022/09/27 00:04:32;;;;;;;5.38;2.40;;;;;;;;;;5101617;28;20111;-65
2022/09/27 00:06:59;;;;;;;4.65;2.10;;;;;;;;;;5101079;28;20480;-71
2022/09/27 00:09:25;;;;;;;6.50;2.40;;;;;;;;;;5101281;28;20040;-66
2022/09/27 00:11:51;;;;;;;10.30;2.28;;;;;;;;;;5100795;28;20075;-67
2022/09/27 00:14:17;;;;;;;7.00;2.50;;;;;;;;;;5105251;28;20077;-70
2022/09/27 00:16:44;;;;;;;4.35;2.13;;;;;;;;;;5105516;27;20048;-70
2022/09/27 00:19:18;;;;;;;7.60;2.60;;;;;;;;;;5099795;28;20048;-65
2022/09/27 00:21:45;;;;;;;4.97;2.33;;;;;;;;;;5108194;28;20105;-66
2022/09/27 00:24:30;;;;;;;6.85;2.47;;;;;;;;;;5107196;28;20063;-70
2022/09/27 00:26:56;;;;;;;5.47;2.50;;;;;;;;;;5094471;28;20063;-64
2022/09/27 00:29:22;;;;;;;5.75;2.42;;;;;;;;;;5105202;28;20048;-63
2022/09/27 00:31:48;;;;;;;6.30;2.40;;;;;;;;;;5100761;28;20061;-68
2022/09/27 00:34:21;;;;;;;4.68;2.38;;;;;;;;;;5103228;28;20044;-64
2022/09/27 00:36:47;;;;;;;6.03;2.55;;;;;;;;;;5100577;28;20062;-65
2022/09/27 00:39:14;;;;;;;4.95;2.67;;;;;;;;;;5102128;28;20047;-68
2022/09/27 00:41:40;;;;;;;8.32;2.30;;;;;;;;;;5102052;28;20090;-64
2022/09/27 00:44:25;;;;;;;6.40;2.38;;;;;;;;;;5103640;28;20120;-63
2022/09/27 00:47:18;;;;;;;5.38;2.20;;;;;;;;;;5104375;27;20048;-65
2022/09/27 00:49:51;;;;;;;3.92;2.08;;;;;;;;;;5103465;28;20070;-67
2022/09/27 00:52:22;;;;;;;5.55;2.63;;;;;;;;;;5103170;28;20042;-65
2022/09/27 00:54:52;;;;;;;5.75;2.05;;;;;;;;;;5102323;28;20069;-66
2022/09/27 00:57:22;;;;;;;5.32;2.47;;;;;;;;;;5104243;28;20489;-71
2022/09/27 01:00:08;;;;;;;6.55;2.78;;;;;;;;;;5105708;28;20051;-69
2022/09/27 01:02:42;;;;;;;5.65;2.70;;;;;;;;;;5104870;28;20150;-71
2022/09/27 01:05:11;;;;;;;5.28;2.50;;;;;;;;;;5104405;28;20129;-67
2022/09/27 01:07:37;;;;;;;7.55;2.72;;;;;;;;;;5098079;28;20056;-63
2022/09/27 01:10:05;;;;;;;5.55;2.20;;;;;;;;;;5095518;28;20064;-63
2022/09/27 01:12:42;;;;;;;3.80;2.80;;;;;;;;;;5099769;28;20059;-63
2022/09/27 01:15:20;;;;;;;8.50;2.42;;;;;;;;;;5105120;28;20085;-69
2022/09/27 01:18:27;;;;;;;6.78;2.25;;;;;;;;;;5100973;28;20052;-68
2022/09/27 01:21:08;;;;;;;5.43;2.63;;;;;;;;;;5101038;28;20073;-67
2022/09/27 01:23:56;;;;;;;4.72;2.33;;;;;;;;;;5102650;28;20074;-63
2022/09/27 01:26:31;;;;;;;3.92;2.10;;;;;;;;;;5099039;28;20517;-66
2022/09/27 01:29:13;;;;;;;6.07;2.25;;;;;;;;;;5094566;28;20478;-65
2022/09/27 01:31:48;;;;;;;3.95;1.90;;;;;;;;;;5099719;28;20051;-68
2022/09/27 01:34:33;;;;;;;3.78;2.08;;;;;;;;;;5103305;28;20074;-70
2022/09/27 01:37:08;;;;;;;4.00;2.15;;;;;;;;;;5101154;28;20048;-67
2022/09/27 01:39:48;;;;;;;4.97;1.98;;;;;;;;;;5103556;28;20138;-62
2022/09/27 01:42:30;;;;;;;6.65;2.13;;;;;;;;;;5107355;27;20504;-70
2022/09/27 01:45:09;;;;;;;5.45;2.08;;;;;;;;;;5105851;28;20047;-64
2022/09/27 01:47:46;;;;;;;4.43;1.95;;;;;;;;;;5101109;28;20134;-63
2022/09/27 01:50:24;;;;;;;8.07;1.98;;;;;;;;;;5102165;28;20051;-68
2022/09/27 01:52:58;;;;;;;5.03;2.00;;;;;;;;;;5097148;28;20039;-66
2022/09/27 01:55:29;;;;;;;4.35;2.20;;;;;;;;;;5096848;28;20071;-68
2022/09/27 01:58:01;;;;;;;7.70;2.10;;;;;;;;;;5097580;28;20046;-68
2022/09/27 02:00:27;;;;;;;4.90;1.92;;;;;;;;;;5098960;28;20554;-69
2022/09/27 02:03:13;;;;;;;2.72;1.77;;;;;;;;;;5102479;28;20071;-65
2022/09/27 02:06:01;;;;;;;2.65;1.60;;;;;;;;;;5103001;28;20958;-68
2022/09/27 02:08:50;;;;;;;2.80;1.65;;;;;;;;;;5095158;28;20420;-65
2022/09/27 02:11:16;;;;;;;3.35;1.60;;;;;;;;;;5099423;28;20047;-70
2022/09/27 02:14:01;;;;;;;2.85;1.70;;;;;;;;;;5099064;28;20680;-67
2022/09/27 02:16:38;;;;;;;2.88;1.70;;;;;;;;;;5099092;28;20048;-72
2022/09/27 02:19:09;;;;;;;4.35;1.67;;;;;;;;;;5100516;28;20779;-71
2022/09/27 02:21:51;;;;;;;3.00;1.52;;;;;;;;;;5103102;28;20055;-63
2022/09/27 02:24:21;;;;;;;5.28;1.85;;;;;;;;;;5102636;28;20444;-69
2022/09/27 02:26:54;;;;;;;4.85;2.00;;;;;;;;;;5100592;28;20056;-69
2022/09/27 02:29:44;;;;;;;2.55;1.67;;;;;;;;;;5102317;28;20504;-67
2022/09/27 02:32:09;;;;;;;5.30;1.70;;;;;;;;;;5099844;28;20108;-69
2022/09/27 02:34:37;;;;;;;4.15;2.00;;;;;;;;;;5104948;28;20497;-63
2022/09/27 02:37:03;;;;;;;4.90;2.08;;;;;;;;;;5101410;27;20508;-66
2022/09/27 02:39:29;;;;;;;2.80;1.63;;;;;;;;;;5100086;28;21194;-65
2022/09/27 02:41:57;;;;;;;2.83;1.40;;;;;;;;;;5100814;28;20130;-70
2022/09/27 02:44:24;;;;;;;3.78;1.60;;;;;;;;;;5098579;28;20040;-64
2022/09/27 02:47:17;;;;;;;3.30;1.60;;;;;;;;;;5096334;28;20100;-65
2022/09/27 02:50:02;;;;;;;3.92;1.45;;;;;;;;;;5100576;28;20052;-66
2022/09/27 02:52:58;;;;;;;3.08;1.50;;;;;;;;;;5096571;28;20040;-70
2022/09/27 02:55:47;;;;;;;5.78;1.60;;;;;;;;;;5101350;28;20051;-63
2022/09/27 02:58:28;;;;;;;3.63;1.23;;;;;;;;;;5093797;28;20055;-68
2022/09/27 03:01:20;;;;;;;4.07;1.17;;;;;;;;;;5099695;28;20040;-69
2022/09/27 03:03:54;;;;;;;2.38;1.20;;;;;;;;;;5099950;28;20056;-66
2022/09/27 03:06:22;;;;;;;;;;;;;;;;;;5101963;28;20493;-68
2022/09/27 03:08:48;;;;;;;3.05;1.08;;;;;;;;;;5101416;28;20023;-68
2022/09/27 03:11:14;;;;;;;1.70;1.05;;;;;;;;;;5103869;28;20067;-70
2022/09/27 03:13:42;;;;;;;2.17;1.10;;;;;;;;;;5103506;28;20493;-66
2022/09/27 03:16:08;;;;;;;1.38;1.20;;;;;;;;;;5100529;28;20047;-63
2022/09/27 03:18:34;;;;;;;1.98;0.90;;;;;;;;;;5099629;28;20055;-65
2022/09/27 03:20:59;;;;;;;1.50;1.20;;;;;;;;;;5099511;28;20059;-63
2022/09/27 03:23:26;;;;;;;1.33;1.00;;;;;;;;;;5101344;28;20058;-65
2022/09/27 03:25:52;;;;;;;1.60;1.20;;;;;;;;;;5097975;28;20039;-69
2022/09/27 03:28:18;;;;;;;4.35;1.35;;;;;;;;;;5097454;28;20058;-69
2022/09/27 03:30:45;;;;;;;4.40;1.35;;;;;;;;;;5099779;28;20421;-64
2022/09/27 03:33:11;;;;;;;2.20;1.13;;;;;;;;;;5099522;28;20058;-65
2022/09/27 03:35:37;;;;;;;7.28;1.73;;;;;;;;;;5099691;28;20682;-66
2022/09/27 03:38:04;;;;;;;2.10;1.13;;;;;;;;;;5098387;28;20078;-63
2022/09/27 03:40:29;;;;;;;3.10;1.10;;;;;;;;;;5100264;28;20134;-68
2022/09/27 03:42:55;;;;;;;3.50;1.10;;;;;;;;;;5099320;28;20100;-63
2022/09/27 03:45:21;;;;;;;1.98;0.90;;;;;;;;;;5098808;28;20517;-65
2022/09/27 03:47:47;;;;;;;1.92;1.30;;;;;;;;;;5099544;28;20048;-63
2022/09/27 03:50:13;;;;;;;3.95;1.10;;;;;;;;;;5098609;28;20421;-71
2022/09/27 03:52:41;;;;;;;2.05;1.10;;;;;;;;;;5098169;28;20051;-68
2022/09/27 03:55:08;;;;;;;2.25;1.10;;;;;;;;;;5096087;28;20146;-62
2022/09/27 03:57:34;;;;;;;3.83;1.38;;;;;;;;;;5095901;28;20059;-62
2022/09/27 04:00:04;;;;;;;1.98;1.10;;;;;;;;;;5096686;28;20048;-67
2022/09/27 04:02:30;;;;;;;2.58;1.20;;;;;;;;;;5098180;28;20055;-64
2022/09/27 04:04:56;;;;;;;5.80;1.45;;;;;;;;;;5101061;28;20471;-65
2022/09/27 04:07:22;;;;;;;3.38;1.27;;;;;;;;;;5097982;28;20089;-69
2022/09/27 04:09:48;;;;;;;5.68;1.50;;;;;;;;;;5095926;28;20047;-68
2022/09/27 04:12:14;;;;;;;3.33;1.50;;;;;;;;;;5093406;28;20052;-67
2022/09/27 04:14:40;;;;;;;5.38;1.75;;;;;;;;;;5096171;28;20047;-66
2022/09/27 04:17:06;;;;;;;11.32;2.08;;;;;;;;;;5110268;28;20885;-68
2022/09/27 04:19:32;;;;;;;5.78;2.30;;;;;;;;;;5096238;28;20048;-64
2022/09/27 04:21:58;;;;;;;4.93;2.67;;;;;;;;;;5094726;28;20060;-65
2022/09/27 04:24:24;;;;;;;3.85;2.42;;;;;;;;;;5091870;28;20294;-65
2022/09/27 04:26:50;;;;;;;7.03;2.90;;;;;;;;;;5089909;28;20064;-65
2022/09/27 04:29:16;;;;;;;7.10;3.10;;;;;;;;;;5091459;28;20108;-70
2022/09/27 04:31:45;;;;;;;4.88;2.53;;;;;;;;;;5100093;28;20055;-68
2022/09/27 04:34:11;;;;;;;5.03;2.67;;;;;;;;;;5096186;28;20047;-63
2022/09/27 04:36:37;;;;;;;3.63;2.30;;;;;;;;;;5094407;28;20051;-65
2022/09/27 04:39:06;;;;;;;7.63;2.33;;;;;;;;;;5102793;28;20051;-65
2022/09/27 04:41:33;;;;;;;6.82;2.78;;;;;;;;;;5099870;28;20501;-64
2022/09/27 04:44:00;;;;;;;6.68;2.50;;;;;;;;;;5103677;28;20047;-64
2022/09/27 04:46:33;;;;;;;9.20;2.47;;;;;;;;;;5095467;28;20040;-67
2022/09/27 04:48:59;;;;;;;10.33;2.60;;;;;;;;;;5102943;28;20413;-63
2022/09/27 04:51:26;;;;;;;9.35;2.38;;;;;;;;;;5100756;28;20039;-66
2022/09/27 04:53:52;;;;;;;7.88;2.35;;;;;;;;;;5098674;28;20040;-68
2022/09/27 04:56:18;;;;;;;5.65;2.50;;;;;;;;;;5102418;28;20051;-71
2022/09/27 04:58:44;;;;;;;3.95;2.53;;;;;;;;;;5101531;28;20082;-66
2022/09/27 05:01:10;;;;;;;7.13;2.75;;;;;;;;;;5099224;28;20412;-64
2022/09/27 05:03:36;;;;;;;4.65;2.30;;;;;;;;;;5102688;28;21039;-67
2022/09/27 05:06:02;;;;;;;3.92;2.50;;;;;;;;;;5102855;28;20050;-64
2022/09/27 05:08:28;;;;;;;4.65;2.40;;;;;;;;;;5100847;28;20051;-64
2022/09/27 05:10:54;;;;;;;4.78;2.65;;;;;;;;;;5099688;28;20045;-66
2022/09/27 05:13:21;;;;;;;7.57;2.28;;;;;;;;;;5100114;28;20154;-66
2022/09/27 05:15:47;;;;;;;6.68;2.10;;;;;;;;;;5103654;28;20049;-68
2022/09/27 05:18:12;;;;;;;6.32;2.17;;;;;;;;;;5099745;28;20056;-68
2022/09/27 05:20:39;;;;;;;8.75;2.85;;;;;;;;;;5101455;28;20706;-63
2022/09/27 05:23:05;;;;;;;6.63;2.17;;;;;;;;;;5101238;27;20059;-65
2022/09/27 05:25:31;;;;;;;3.80;1.95;;;;;;;;;;5095477;28;20558;-71
2022/09/27 05:27:58;;;;;;;4.57;2.40;;;;;;;;;;5099475;27;20453;-65
2022/09/27 05:30:25;;;;;;;4.65;1.92;;;;;;;;;;5097976;28;20043;-70
2022/09/27 05:32:51;;;;;;;5.95;1.92;;;;;;;;;;5103860;28;20043;-67
2022/09/27 05:35:18;;;;;;;3.85;2.10;;;;;;;;;;5104921;28;20051;-65
2022/09/27 05:37:59;;;;;;;6.90;1.75;;;;;;;;;;5099670;28;20134;-66
2022/09/27 05:40:25;;;;;;;4.95;2.03;;;;;;;;;;5100132;28;20051;-67
2022/09/27 05:42:52;;;;;;;4.07;1.70;;;;;;;;;;5105915;27;20132;-65
2022/09/27 05:45:20;;;;;;;5.57;1.70;;;;;;;;;;5101220;28;20048;-69
2022/09/27 05:47:53;;;;;;;9.32;1.85;;;;;;;;;;5098415;28;20058;-71
2022/09/27 05:50:19;;;;;;;6.35;2.25;;;;;;;;;;5101712;28;20132;-69
2022/09/27 05:52:44;;;;;;;5.30;2.30;;;;;;;;;;5094750;28;20655;-66
2022/09/27 05:55:10;;;;;;;5.70;2.45;;;;;;;;;;5100421;28;20252;-69
2022/09/27 05:57:36;;;;;;;6.72;2.88;;;;;;;;;;5097328;28;20577;-66
2022/09/27 06:00:02;;;;;;;9.70;3.17;;;;;;;;;;5101559;28;20084;-67
2022/09/27 06:02:28;;;;;;;12.95;3.45;;;;;;;;;;5097290;28;20075;-65
2022/09/27 06:04:54;;;;;;;8.48;3.22;;;;;;;;;;5101940;28;20099;-66
2022/09/27 06:07:20;;;;;;;13.32;3.80;;;;;;;;;;5097876;28;20093;-74
2022/09/27 06:09:46;;;;;;;10.80;3.08;;;;;;;;;;5106132;28;20052;-69
2022/09/27 06:12:13;;;;;;;6.97;2.78;;;;;;;;;;5103581;28;20054;-66
2022/09/27 06:14:39;;;;;;;8.10;2.70;;;;;;;;;;5096214;28;20138;-69
2022/09/27 06:17:05;;;;;;;9.00;2.67;;;;;;;;;;5095333;28;20096;-65
2022/09/27 06:19:31;;;;;;;8.40;3.03;;;;;;;;;;5103283;28;20044;-66
2022/09/27 06:21:57;;;;;;;9.48;2.17;;;;;;;;;;5107311;28;20048;-66
2022/09/27 06:24:23;;;;;;;9.02;2.45;;;;;;;;;;5091283;28;20043;-67
2022/09/27 06:26:49;;;;;;;9.95;2.17;;;;;;;;;;5105746;28;20397;-71
2022/09/27 06:29:14;;;;;;;5.18;2.30;;;;;;;;;;5097739;28;20147;-70
2022/09/27 06:31:40;;;;;;;9.02;2.10;;;;;;;;;;5104960;28;20413;-71
2022/09/27 06:34:07;;;;;;;11.57;1.80;;;;;;;;;;5106289;28;20097;-66
2022/09/27 06:36:33;;;;;;;13.07;1.98;;;;;;;;;;5099398;28;20054;-70
2022/09/27 06:39:00;;;;;;;8.55;2.00;;;;;;;;;;5093156;28;20039;-73
2022/09/27 06:41:26;;;;;;;7.60;2.08;;;;;;;;;;5096808;28;20048;-78
2022/09/27 06:43:52;;;;;;;8.02;2.05;;;;;;;;;;5108836;28;20058;-64
2022/09/27 06:46:18;;;;;;;7.40;2.20;;;;;;;;;;5109066;28;20174;-72
2022/09/27 06:48:43;;;;;;;11.68;2.42;;;;;;;;;;5107445;28;20174;-64
2022/09/27 06:51:09;;;;;;;7.82;2.13;;;;;;;;;;5106109;28;20432;-71
2022/09/27 06:53:35;;;;;;;10.13;1.88;;;;;;;;;;5099474;28;20126;-72
2022/09/27 06:56:02;;;;;;;15.98;1.88;;;;;;;;;;5104304;28;20042;-65
2022/09/27 07:01:13;;;;;;;;;;;;;;;;;;5099049;28;20075;-70
2022/09/27 07:03:41;;;;;;;4.13;1.52;;;;;;;;;;5104162;28;19947;-71
2022/09/27 07:06:15;;;;;;;14.18;1.77;;;;;;;;;;5104869;28;20036;-66
2022/09/27 07:08:41;;;;;;;14.27;2.90;;;;;;;;;;5105714;28;20150;-72
2022/09/27 07:11:07;;;;;;;5.35;2.17;;;;;;;;;;5106016;28;20039;-64
2022/09/27 07:13:36;;;;;;;13.13;2.05;;;;;;;;;;5108392;28;20123;-65
2022/09/27 07:16:02;;;;;;;9.57;1.83;;;;;;;;;;5111980;28;20044;-65
2022/09/27 07:18:28;;;;;;;10.02;1.73;;;;;;;;;;5110175;28;20117;-67
2022/09/27 07:20:54;;;;;;;9.98;1.65;;;;;;;;;;5110568;28;20043;-72
2022/09/27 07:23:20;;;;;;;7.22;1.52;;;;;;;;;;5102521;28;20126;-75
2022/09/27 07:25:46;;;;;;;7.85;1.65;;;;;;;;;;5105066;28;20459;-65
2022/09/27 07:28:17;;;;;;;10.57;1.80;;;;;;;;;;5104126;28;20048;-67
2022/09/27 07:30:44;;;;;;;13.82;2.08;;;;;;;;;;5109197;28;20454;-65
2022/09/27 07:33:11;;;;;;;13.43;1.75;;;;;;;;;;5108703;28;20040;-64
2022/09/27 07:35:40;;;;;;;9.00;2.70;;;;;;;;;;5108508;28;20050;-67
2022/09/27 07:38:09;;;;;;;5.65;2.22;;;;;;;;;;5095757;28;20051;-65
2022/09/27 07:40:36;;;;;;;9.60;2.40;;;;;;;;;;5103531;28;20130;-67
2022/09/27 07:43:02;;;;;;;8.52;2.80;;;;;;;;;;5100123;28;20350;-66
2022/09/27 07:45:28;;;;;;;6.70;2.33;;;;;;;;;;5107156;28;20062;-66
2022/09/27 07:47:54;;;;;;;9.70;3.00;;;;;;;;;;5108386;28;20043;-68
2022/09/27 07:50:20;;;;;;;11.30;2.40;;;;;;;;;;5108648;28;20523;-68
2022/09/27 07:52:50;;;;;;;14.95;2.58;;;;;;;;;;5107881;28;20055;-72
2022/09/27 07:55:17;;;;;;;9.43;2.08;;;;;;;;;;5107678;28;20039;-67
2022/09/27 07:57:44;;;;;;;10.68;2.63;;;;;;;;;;5104077;28;20085;-65
2022/09/27 08:00:13;;;;;;;13.30;2.72;;;;;;;;;;5103409;28;20079;-67
2022/09/27 08:02:43;;;;;;;11.63;3.22;;;;;;;;;;5115309;28;20047;-68
2022/09/27 08:05:11;;;;;;;10.68;2.20;;;;;;;;;;5100947;28;20035;-67
2022/09/27 08:07:38;;;;;;;8.60;2.05;;;;;;;;;;5112801;28;20492;-67
2022/09/27 08:10:06;;;;;;;11.00;2.30;;;;;;;;;;5113754;28;20048;-70
2022/09/27 08:12:32;;;;;;;13.00;2.22;;;;;;;;;;5114070;28;20120;-67
2022/09/27 08:15:00;;;;;;;4.90;1.83;;;;;;;;;;5113620;28;20365;-67
2022/09/27 08:17:27;;;;;;;17.38;2.13;;;;;;;;;;5112723;28;20043;-67
2022/09/27 08:19:53;;;;;;;10.15;1.63;;;;;;;;;;5113960;28;20044;-68
2022/09/27 08:22:20;;;;;;;9.65;2.40;;;;;;;;;;5114548;28;20256;-67
2022/09/27 08:24:46;;;;;;;6.07;1.52;;;;;;;;;;5115613;28;20050;-70
2022/09/27 08:27:13;;;;;;;8.52;1.70;;;;;;;;;;5114212;28;20070;-68
2022/09/27 08:29:40;;;;;;;6.85;1.05;;;;;;;;;;5113345;28;20048;-69
2022/09/27 08:32:07;;;;;;;2.33;1.15;;;;;;;;;;5112874;28;20069;-67
2022/09/27 08:34:33;;;;;;;4.60;1.23;;;;;;;;;;5113211;28;20047;-73
2022/09/27 08:36:59;;;;;;;4.47;1.20;;;;;;;;;;5114238;28;20040;-71
2022/09/27 08:39:25;;;;;;;3.00;0.90;;;;;;;;;;5113581;28;20063;-69
2022/09/27 08:42:23;;;;;;;4.20;1.02;;;;;;;;;;5112670;28;20090;-68
2022/09/27 08:45:04;;;;;;;5.13;1.00;;;;;;;;;;5114442;28;20059;-66
2022/09/27 08:47:52;;;;;;;2.13;0.85;;;;;;;;;;5113617;28;20052;-72
2022/09/27 08:50:25;;;;;;;8.38;1.20;;;;;;;;;;5112379;27;20047;-69
2022/09/27 08:52:59;;;;;;;7.70;1.33;;;;;;;;;;5105672;28;20185;-69
2022/09/27 08:55:36;;;;;;;4.80;1.10;;;;;;;;;;5094877;28;20092;-67
2022/09/27 08:58:11;;;;;;;4.78;0.80;;;;;;;;;;5111934;28;20468;-67
2022/09/27 09:00:38;;;;;;;1.25;0.77;;;;;;;;;;5113495;28;20042;-69
2022/09/27 09:03:04;;;;;;;2.80;1.05;;;;;;;;;;5113558;28;20517;-69
2022/09/27 09:05:33;;;;;;;4.25;1.20;;;;;;;;;;5110942;28;20046;-73
2022/09/27 09:08:22;;;;;;;3.58;0.90;;;;;;;;;;5111122;28;20572;-68
2022/09/27 09:14:03;;;;;;;4.68;1.10;;;;;;;;;;5112873;28;20043;-69
2022/09/27 09:16:35;;;;;;;3.25;1.05;;;;;;;;;;5113192;28;20122;-71
2022/09/27 09:19:26;;;;;;;4.70;1.30;;;;;;;;;;5111719;28;20086;-69
2022/09/27 09:21:56;;;;;;;6.68;1.48;;;;;;;;;;5111437;28;20582;-69
2022/09/27 09:24:30;;;;;;;2.53;0.90;;;;;;;;;;5110843;28;20051;-68
2022/09/27 09:27:14;;;;;;;4.57;1.00;;;;;;;;;;5109688;28;20047;-70
2022/09/27 09:29:59;;;;;;;2.73;1.00;;;;;;;;;;5110558;28;20048;-76
2022/09/27 09:32:43;;;;;;;2.85;0.73;;;;;;;;;;5109732;28;20303;-68
2022/09/27 09:35:16;;;;;;;1.83;0.85;;;;;;;;;;5090685;28;20105;-69
2022/09/27 09:37:45;;;;;;;5.10;1.20;;;;;;;;;;5091045;28;20055;-67
2022/09/27 09:40:25;;;;;;;2.72;1.00;;;;;;;;;;5111098;28;20044;-69
2022/09/27 09:43:02;;;;;;;5.28;0.82;;;;;;;;;;5113220;28;20071;-67
2022/09/27 09:45:40;;;;;;;6.28;0.80;;;;;;;;;;5112202;27;20063;-68
2022/09/27 09:48:35;;;;;;;5.63;1.27;;;;;;;;;;5111171;28;20051;-75
2022/09/27 09:51:09;;;;;;;4.28;0.80;;;;;;;;;;5090725;28;20486;-66
2022/09/27 09:53:48;;;;;;;4.63;0.90;;;;;;;;;;5107680;28;20055;-68
2022/09/27 09:56:26;;;;;;;6.43;0.85;;;;;;;;;;5109961;28;20051;-72
2022/09/27 09:59:01;;;;;;;1.35;0.80;;;;;;;;;;5109594;28;20427;-68
2022/09/27 10:01:41;;;;;;;2.63;0.70;;;;;;;;;;5111404;28;20079;-68
2022/09/27 10:04:21;;;;;;;6.50;0.85;;;;;;;;;;5111455;28;20052;-74
2022/09/27 10:06:48;;;;;;;0.70;0.60;;;;;;;;;;5110768;28;20174;-68
2022/09/27 10:09:23;;;;;;;9.85;0.80;;;;;;;;;;5112123;28;20058;-67
2022/09/27 10:11:49;;;;;;;5.65;0.80;;;;;;;;;;5113460;28;20046;-74
2022/09/27 10:14:18;;;;;;;1.40;0.90;;;;;;;;;;5112125;28;20040;-67
2022/09/27 10:16:57;;;;;;;4.07;0.90;;;;;;;;;;5110103;28;20051;-75
2022/09/27 10:19:31;;;;;;;9.68;0.80;;;;;;;;;;5102122;28;20054;-72
2022/09/27 10:22:02;;;;;;;3.17;0.90;;;;;;;;;;5109859;28;20112;-69
2022/09/27 10:24:28;;;;;;;6.60;1.20;;;;;;;;;;5110421;27;20055;-70
2022/09/27 10:26:58;;;;;;;2.20;1.10;;;;;;;;;;5108293;28;20051;-69
2022/09/27 10:29:29;;;;;;;2.45;1.10;;;;;;;;;;5110384;28;20078;-67
2022/09/27 10:31:56;;;;;;;1.70;0.75;;;;;;;;;;5111603;28;20047;-68
2022/09/27 10:34:21;;;;;;;3.78;0.82;;;;;;;;;;5111020;28;20111;-70
2022/09/27 10:37:03;;;;;;;1.77;0.85;;;;;;;;;;5093986;28;20497;-69
2022/09/27 10:39:29;;;;;;;1.35;0.80;;;;;;;;;;5092572;28;20048;-67
2022/09/27 10:41:55;;;;;;;3.70;0.70;;;;;;;;;;5093521;28;20569;-69
2022/09/27 10:44:26;;;;;;;3.90;0.90;;;;;;;;;;5111667;28;20043;-69
2022/09/27 10:47:00;;;;;;;3.78;0.60;;;;;;;;;;5109326;28;20086;-67
2022/09/27 10:49:30;;;;;;;1.20;0.60;;;;;;;;;;5109436;28;20146;-66
2022/09/27 10:51:59;;;;;;;1.98;0.80;;;;;;;;;;5109655;28;20108;-67
2022/09/27 10:54:31;;;;;;;2.25;0.90;;;;;;;;;;5108750;28;20039;-67
2022/09/27 10:57:19;;;;;;;1.02;0.70;;;;;;;;;;5109530;28;20097;-67
2022/09/27 10:59:55;;;;;;;5.03;0.98;;;;;;;;;;5108770;28;20456;-68
2022/09/27 11:02:28;;;;;;;2.38;0.30;;;;;;;;;;5110585;28;20040;-69
2022/09/27 11:05:13;;;;;;;3.33;0.60;;;;;;;;;;5109469;28;20097;-68
2022/09/27 11:07:54;;;;;;;1.30;0.63;;;;;;;;;;5109342;28;20052;-69
2022/09/27 11:10:34;;;;;;;1.85;0.70;;;;;;;;;;5110431;28;20071;-77
2022/09/27 11:13:19;;;;;;;1.08;0.43;;;;;;;;;;5110034;28;20059;-68
2022/09/27 11:16:16;;;;;;;0.60;0.50;;;;;;;;;;5111449;28;20386;-72
2022/09/27 11:19:05;;;;;;;0.60;0.40;;;;;;;;;;5109891;28;20413;-70
2022/09/27 11:22:00;;;;;;;1.40;0.57;;;;;;;;;;5110462;28;20051;-73
2022/09/27 11:24:47;;;;;;;1.65;0.50;;;;;;;;;;5110459;28;20511;-69
2022/09/27 11:27:32;;;;;;;1.45;0.50;;;;;;;;;;5108087;28;20076;-70
2022/09/27 11:30:14;;;;;;;1.35;0.80;;;;;;;;;;5098180;28;20108;-69
2022/09/27 11:32:49;;;;;;;0.90;0.70;;;;;;;;;;5110251;28;20086;-73
2022/09/27 11:35:33;;;;;;;1.13;0.63;;;;;;;;;;5111074;28;20051;-68
2022/09/27 11:38:17;;;;;;;0.93;0.60;;;;;;;;;;5109705;28;20051;-70
2022/09/27 11:40:59;;;;;;;1.92;0.50;;;;;;;;;;5114152;28;20370;-68
2022/09/27 11:44:07;;;;;;;3.03;0.90;;;;;;;;;;5110931;27;20044;-68
2022/09/27 11:46:36;;;;;;;1.90;1.13;;;;;;;;;;5097915;28;20097;-71
2022/09/27 11:49:39;;;;;;;2.05;0.35;;;;;;;;;;5115138;28;20054;-68
2022/09/27 11:52:17;;;;;;;0.90;0.55;;;;;;;;;;5117413;28;20056;-68
2022/09/27 11:55:18;;;;;;;2.60;0.55;;;;;;;;;;5115244;28;20044;-69
2022/09/27 11:58:13;;;;;;;2.42;0.70;;;;;;;;;;5051376;28;20057;-72
2022/09/27 12:00:54;;;;;;;5.03;0.85;;;;;;;;;;5035731;28;20558;-68
2022/09/27 12:03:38;;;;;;;0.60;0.60;;;;;;;;;;5043143;28;20049;-67
2022/09/27 12:06:17;;;;;;;0.67;0.40;;;;;;;;;;5050945;28;20049;-69
2022/09/27 12:09:00;;;;;;;2.13;0.68;;;;;;;;;;5050519;28;20282;-66
2022/09/27 12:12:09;;;;;;;3.03;0.77;;;;;;;;;;5053773;28;20044;-73
2022/09/27 12:14:40;;;;;;;0.43;0.30;;;;;;;;;;5006150;28;20052;-70
2022/09/27 12:17:17;;;;;;;3.83;0.80;;;;;;;;;;5030448;28;20040;-69
2022/09/27 12:19:50;;;;;;;0.95;0.47;;;;;;;;;;5050081;28;20469;-72
2022/09/27 12:22:37;;;;;;;1.03;0.70;;;;;;;;;;5050879;28;20056;-67
2022/09/27 12:25:03;;;;;;;0.47;0.47;;;;;;;;;;5052230;28;20751;-70
2022/09/27 12:27:42;;;;;;;1.52;0.98;;;;;;;;;;5050791;28;20654;-76
2022/09/27 12:30:12;;;;;;;3.33;0.70;;;;;;;;;;5051188;28;20143;-67
2022/09/27 12:33:01;;;;;;;1.77;0.60;;;;;;;;;;5050319;28;20041;-69
2022/09/27 12:35:31;;;;;;;2.17;0.52;;;;;;;;;;5101486;28;20048;-70
2022/09/27 12:38:05;;;;;;;2.35;0.80;;;;;;;;;;5113001;28;20044;-69
2022/09/27 12:40:39;;;;;;;0.73;0.20;;;;;;;;;;5113310;28;20054;-68
2022/09/27 12:43:26;;;;;;;1.90;0.38;;;;;;;;;;5114634;28;20047;-69
2022/09/27 12:46:04;;;;;;;2.35;0.70;;;;;;;;;;5115386;28;20096;-74
2022/09/27 12:48:59;;;;;;;2.65;0.90;;;;;;;;;;5115682;28;20068;-68
2022/09/27 12:51:32;;;;;;;4.13;0.70;;;;;;;;;;5112743;28;20069;-71
2022/09/27 12:54:23;;;;;;;4.18;0.68;;;;;;;;;;5111530;28;20048;-76
2022/09/27 12:57:17;;;;;;;2.90;0.80;;;;;;;;;;5112343;28;20472;-70
2022/09/27 12:59:52;;;;;;;1.52;0.77;;;;;;;;;;5113441;28;20513;-69
2022/09/27 13:02:54;;;;;;;1.38;0.60;;;;;;;;;;5113075;28;20044;-70
2022/09/27 13:05:35;;;;;;;0.70;0.40;;;;;;;;;;5113269;28;20120;-69
2022/09/27 13:08:13;;;;;;;1.17;0.60;;;;;;;;;;5111690;28;20439;-69
2022/09/27 13:10:53;;;;;;;2.38;0.60;;;;;;;;;;5111454;28;20047;-73
2022/09/27 13:13:25;;;;;;;0.80;0.50;;;;;;;;;;5111947;28;20040;-67
2022/09/27 13:15:55;;;;;;;3.95;0.75;;;;;;;;;;5112307;28;20078;-69
2022/09/27 13:18:51;;;;;;;1.00;0.70;;;;;;;;;;5113161;28;20062;-68
2022/09/27 13:21:56;;;;;;;3.00;0.50;;;;;;;;;;5093761;28;20059;-74
2022/09/27 13:24:30;;;;;;;0.55;0.55;;;;;;;;;;5111845;27;20051;-72
2022/09/27 13:27:00;;;;;;;3.45;0.73;;;;;;;;;;5104777;28;20047;-76
2022/09/27 13:29:32;;;;;;;1.58;0.70;;;;;;;;;;5112490;28;20131;-68
2022/09/27 13:31:58;;;;;;;1.85;0.63;;;;;;;;;;5113024;28;20055;-68
2022/09/27 13:34:52;;;;;;;2.28;0.70;;;;;;;;;;5112665;28;20454;-75
2022/09/27 13:37:35;;;;;;;0.80;0.60;;;;;;;;;;5112904;28;20071;-69
2022/09/27 13:40:23;;;;;;;1.77;0.90;;;;;;;;;;5099450;28;20139;-72
2022/09/27 13:42:56;;;;;;;1.95;0.80;;;;;;;;;;5119585;27;20100;-68
2022/09/27 13:45:48;;;;;;;3.17;0.90;;;;;;;;;;5112323;28;20046;-68
2022/09/27 13:48:31;;;;;;;1.27;0.60;;;;;;;;;;5101678;28;20097;-67
2022/09/27 13:51:02;;;;;;;1.05;0.57;;;;;;;;;;5112607;28;20404;-66
2022/09/27 13:53:38;;;;;;;2.20;0.70;;;;;;;;;;5111211;28;20054;-70
2022/09/27 13:56:05;;;;;;;3.03;0.75;;;;;;;;;;5112057;28;20096;-67
2022/09/27 13:58:53;;;;;;;1.30;0.75;;;;;;;;;;5113887;28;20051;-68
2022/09/27 14:01:29;;;;;;;1.08;0.60;;;;;;;;;;5093446;28;20097;-68
2022/09/27 14:04:02;;;;;;;3.60;0.60;;;;;;;;;;5110092;28;20442;-69
2022/09/27 14:06:34;;;;;;;4.95;0.80;;;;;;;;;;5114047;28;20095;-68
2022/09/27 14:09:05;;;;;;;2.85;1.30;;;;;;;;;;5114724;28;20118;-69
2022/09/27 14:11:41;;;;;;;6.93;1.50;;;;;;;;;;5114195;28;20134;-68
2022/09/27 14:14:14;;;;;;;2.35;0.70;;;;;;;;;;5114877;28;20055;-67
2022/09/27 14:16:45;;;;;;;2.45;0.70;;;;;;;;;;5117707;28;20052;-69
2022/09/27 14:19:20;;;;;;;1.38;0.80;;;;;;;;;;5115506;28;20050;-65
2022/09/27 14:21:47;;;;;;;0.95;0.65;;;;;;;;;;5114495;27;20736;-77
2022/09/27 14:24:34;;;;;;;2.47;0.70;;;;;;;;;;5112325;28;20165;-72
2022/09/27 14:27:33;;;;;;;5.82;0.75;;;;;;;;;;5114404;28;20051;-68
2022/09/27 14:30:21;;;;;;;2.00;0.70;;;;;;;;;;5095913;28;20121;-66
2022/09/27 14:32:50;;;;;;;0.98;0.60;;;;;;;;;;5103588;28;20058;-68
2022/09/27 14:38:08;;;;;;;1.67;0.90;;;;;;;;;;5096109;28;20493;-66
2022/09/27 14:40:42;;;;;;;2.78;0.98;;;;;;;;;;5093710;28;20097;-69
2022/09/27 14:43:17;;;;;;;2.28;0.88;;;;;;;;;;5111594;28;20082;-68
2022/09/27 14:45:46;;;;;;;0.68;0.32;;;;;;;;;;5114324;28;20058;-68
2022/09/27 14:48:42;;;;;;;3.38;0.70;;;;;;;;;;5114880;28;20070;-70
2022/09/27 14:51:11;;;;;;;2.47;0.90;;;;;;;;;;5093090;28;20040;-69
2022/09/27 14:53:46;;;;;;;1.52;0.60;;;;;;;;;;5114547;28;20084;-71
2022/09/27 14:56:18;;;;;;;2.15;0.80;;;;;;;;;;5107267;28;20047;-68
2022/09/27 14:58:45;;;;;;;4.40;1.50;;;;;;;;;;5111114;28;20575;-74
2022/09/27 15:01:16;;;;;;;0.73;0.70;;;;;;;;;;5110616;28;20070;-69
2022/09/27 15:03:43;;;;;;;1.83;0.70;;;;;;;;;;5106370;28;20471;-63
2022/09/27 15:06:10;;;;;;;8.02;1.38;;;;;;;;;;5103342;28;20047;-66
2022/09/27 15:08:37;;;;;;;1.33;0.77;;;;;;;;;;5102900;28;20128;-57
2022/09/27 15:11:06;;;;;;;0.70;0.70;;;;;;;;;;5100884;27;20047;-65
2022/09/27 15:13:35;;;;;;;3.40;0.68;;;;;;;;;;5105099;28;20052;-65
2022/09/27 15:16:08;;;;;;;4.22;0.90;;;;;;;;;;5102647;28;20404;-65
2022/09/27 15:18:36;;;;;;;;;;;;;;;;;;5110264;27;20055;-63
2022/09/27 15:21:04;;;;;;;1.80;1.05;;;;;;;;;;5094964;28;19919;-65
2022/09/27 15:23:39;;;;;;;1.90;0.80;;;;;;;;;;5104401;28;20090;-63
2022/09/27 15:26:14;;;;;;;4.30;1.00;;;;;;;;;;5101198;28;20051;-65
2022/09/27 15:28:47;;;;;;;5.88;1.20;;;;;;;;;;5102795;28;20059;-63